KCEZ/CEZ METAR and TAF weather

Enter ICAO airport designator
Station Type Date Time Source
KCEZ METAR 2020/02/21 13:53 UTC NOAA

KCEZ 211353Z AUTO 00000KT 10SM CLR M07/M11 A3037 RMK AO2 SLP311 T10671111


Station Type Date Time Source
KCEZ Decoded METAR 2020/02/21 13:53 UTC NOAA

CORTEZ MONTEZUMA COUNTY AIRPORT , CO, United States (KCEZ) 37-18N 108-38W 1797M
Feb 21, 2020 - 08:53 AM EST / 2020.02.21 1353 UTC
Wind: Calm:0
Visibility: 10 mile(s):0
Sky conditions: clear
Temperature: 19.9 F (-6.7 C)
Dew Point: 12.0 F (-11.1 C)
Relative Humidity: 70%
Pressure (altimeter): 30.37 in. Hg (1028 hPa)
ob: KCEZ 211353Z AUTO 00000KT 10SM CLR M07/M11 A3037 RMK AO2 SLP311 T10671111
cycle: 14

Station Type Date Time Source
KCEZ TAF UTC NOAA

Error!

Example: see airport list